<?xml version='1.0' encoding='UTF-8'?>
<gpx version="1.1" creator="https://www.komoot.de" xmlns="http://www.topografix.com/GPX/1/1" xmlns:xsi="http://www.w3.org/2001/XMLSchema-instance" xsi:schemaLocation="http://www.topografix.com/GPX/1/1 http://www.topografix.com/GPX/1/1/gpx.xsd">
  <metadata>
    <name>GTW Moos 5 km</name>
    <author>
      <link href="https://www.komoot.de">
        <text>komoot</text>
        <type>text/html</type>
      </link>
    </author>
  </metadata>
  <trk>
    <name>GTW Moos 5 km</name>
    <trkseg>
      <trkpt lat="48.193356" lon="11.872257">
        <ele>505.878148</ele>
        <time>2022-10-18T11:53:46.539Z</time>
      </trkpt>
      <trkpt lat="48.193530" lon="11.872509">
        <ele>505.878148</ele>
        <time>2022-10-18T11:54:10.783Z</time>
      </trkpt>
      <trkpt lat="48.193628" lon="11.872639">
        <ele>505.878148</ele>
        <time>2022-10-18T11:54:23.947Z</time>
      </trkpt>
      <trkpt lat="48.193755" lon="11.872810">
        <ele>505.878148</ele>
        <time>2022-10-18T11:54:41.065Z</time>
      </trkpt>
      <trkpt lat="48.193881" lon="11.872979">
        <ele>505.878148</ele>
        <time>2022-10-18T11:54:58.061Z</time>
      </trkpt>
      <trkpt lat="48.193946" lon="11.872679">
        <ele>505.868129</ele>
        <time>2022-10-18T11:55:19.150Z</time>
      </trkpt>
      <trkpt lat="48.194193" lon="11.872660">
        <ele>505.761847</ele>
        <time>2022-10-18T11:55:43.991Z</time>
      </trkpt>
      <trkpt lat="48.194617" lon="11.872439">
        <ele>505.568957</ele>
        <time>2022-10-18T11:56:28.949Z</time>
      </trkpt>
      <trkpt lat="48.194735" lon="11.872606">
        <ele>505.499245</ele>
        <time>2022-10-18T11:56:45.378Z</time>
      </trkpt>
      <trkpt lat="48.194804" lon="11.872824">
        <ele>505.430116</ele>
        <time>2022-10-18T11:57:01.527Z</time>
      </trkpt>
      <trkpt lat="48.194825" lon="11.872920">
        <ele>505.401173</ele>
        <time>2022-10-18T11:57:08.301Z</time>
      </trkpt>
      <trkpt lat="48.194889" lon="11.873221">
        <ele>505.310670</ele>
        <time>2022-10-18T11:57:29.563Z</time>
      </trkpt>
      <trkpt lat="48.194969" lon="11.873655">
        <ele>505.181682</ele>
        <time>2022-10-18T11:58:00.026Z</time>
      </trkpt>
      <trkpt lat="48.195029" lon="11.873741">
        <ele>505.146021</ele>
        <time>2022-10-18T11:58:08.452Z</time>
      </trkpt>
      <trkpt lat="48.194847" lon="11.874275">
        <ele>504.495960</ele>
        <time>2022-10-18T11:58:49.428Z</time>
      </trkpt>
      <trkpt lat="48.195339" lon="11.874666">
        <ele>503.383206</ele>
        <time>2022-10-18T11:59:46.942Z</time>
      </trkpt>
      <trkpt lat="48.195444" lon="11.874971">
        <ele>502.925884</ele>
        <time>2022-10-18T12:00:10.992Z</time>
      </trkpt>
      <trkpt lat="48.195480" lon="11.875021">
        <ele>502.827835</ele>
        <time>2022-10-18T12:00:16.126Z</time>
      </trkpt>
      <trkpt lat="48.195528" lon="11.875090">
        <ele>502.694970</ele>
        <time>2022-10-18T12:00:23.011Z</time>
      </trkpt>
      <trkpt lat="48.196203" lon="11.876221">
        <ele>500.440544</ele>
        <time>2022-10-18T12:02:10.455Z</time>
      </trkpt>
      <trkpt lat="48.196353" lon="11.876564">
        <ele>499.742718</ele>
        <time>2022-10-18T12:02:39.625Z</time>
      </trkpt>
      <trkpt lat="48.196269" lon="11.876645">
        <ele>499.487893</ele>
        <time>2022-10-18T12:02:50.130Z</time>
      </trkpt>
      <trkpt lat="48.196353" lon="11.876564">
        <ele>499.233067</ele>
        <time>2022-10-18T12:03:00.605Z</time>
      </trkpt>
      <trkpt lat="48.196562" lon="11.877144">
        <ele>498.111516</ele>
        <time>2022-10-18T12:03:47.015Z</time>
      </trkpt>
      <trkpt lat="48.196772" lon="11.878156">
        <ele>496.722653</ele>
        <time>2022-10-18T12:05:00.885Z</time>
      </trkpt>
      <trkpt lat="48.197044" lon="11.879426">
        <ele>495.989069</ele>
        <time>2022-10-18T12:06:31.662Z</time>
      </trkpt>
      <trkpt lat="48.197454" lon="11.880611">
        <ele>495.434653</ele>
        <time>2022-10-18T12:08:00.871Z</time>
      </trkpt>
      <trkpt lat="48.197435" lon="11.880719">
        <ele>495.434006</ele>
        <time>2022-10-18T12:08:08.343Z</time>
      </trkpt>
      <trkpt lat="48.197575" lon="11.881230">
        <ele>495.430807</ele>
        <time>2022-10-18T12:08:45.391Z</time>
      </trkpt>
      <trkpt lat="48.197608" lon="11.881392">
        <ele>495.429827</ele>
        <time>2022-10-18T12:08:56.783Z</time>
      </trkpt>
      <trkpt lat="48.197632" lon="11.881571">
        <ele>495.428770</ele>
        <time>2022-10-18T12:09:09.009Z</time>
      </trkpt>
      <trkpt lat="48.197728" lon="11.881744">
        <ele>495.427466</ele>
        <time>2022-10-18T12:09:24.031Z</time>
      </trkpt>
      <trkpt lat="48.197750" lon="11.881909">
        <ele>495.426492</ele>
        <time>2022-10-18T12:09:35.261Z</time>
      </trkpt>
      <trkpt lat="48.197751" lon="11.882637">
        <ele>495.422277</ele>
        <time>2022-10-18T12:10:23.910Z</time>
      </trkpt>
      <trkpt lat="48.197750" lon="11.882697">
        <ele>495.421930</ele>
        <time>2022-10-18T12:10:28.001Z</time>
      </trkpt>
      <trkpt lat="48.197760" lon="11.884675">
        <ele>495.436087</ele>
        <time>2022-10-18T12:12:40.232Z</time>
      </trkpt>
      <trkpt lat="48.197779" lon="11.885194">
        <ele>495.440442</ele>
        <time>2022-10-18T12:13:14.999Z</time>
      </trkpt>
      <trkpt lat="48.197745" lon="11.885362">
        <ele>495.441913</ele>
        <time>2022-10-18T12:13:26.773Z</time>
      </trkpt>
      <trkpt lat="48.197758" lon="11.885657">
        <ele>495.490896</ele>
        <time>2022-10-18T12:13:46.826Z</time>
      </trkpt>
      <trkpt lat="48.197783" lon="11.886126">
        <ele>495.713021</ele>
        <time>2022-10-18T12:14:18.375Z</time>
      </trkpt>
      <trkpt lat="48.197746" lon="11.886132">
        <ele>495.739379</ele>
        <time>2022-10-18T12:14:22.358Z</time>
      </trkpt>
      <trkpt lat="48.196643" lon="11.886328">
        <ele>496.526062</ele>
        <time>2022-10-18T12:16:16.758Z</time>
      </trkpt>
      <trkpt lat="48.195886" lon="11.886457">
        <ele>497.339637</ele>
        <time>2022-10-18T12:17:35.704Z</time>
      </trkpt>
      <trkpt lat="48.195231" lon="11.886601">
        <ele>498.177424</ele>
        <time>2022-10-18T12:18:44.779Z</time>
      </trkpt>
      <trkpt lat="48.194904" lon="11.886648">
        <ele>498.593153</ele>
        <time>2022-10-18T12:19:19.457Z</time>
      </trkpt>
      <trkpt lat="48.193740" lon="11.886829">
        <ele>499.930239</ele>
        <time>2022-10-18T12:21:23.138Z</time>
      </trkpt>
      <trkpt lat="48.193070" lon="11.886948">
        <ele>500.670351</ele>
        <time>2022-10-18T12:22:32.884Z</time>
      </trkpt>
      <trkpt lat="48.192797" lon="11.886996">
        <ele>500.965166</ele>
        <time>2022-10-18T12:23:00.928Z</time>
      </trkpt>
      <trkpt lat="48.192318" lon="11.887104">
        <ele>500.791049</ele>
        <time>2022-10-18T12:23:49.556Z</time>
      </trkpt>
      <trkpt lat="48.192265" lon="11.887121">
        <ele>500.771567</ele>
        <time>2022-10-18T12:23:55.054Z</time>
      </trkpt>
      <trkpt lat="48.192110" lon="11.887184">
        <ele>500.713841</ele>
        <time>2022-10-18T12:24:11.193Z</time>
      </trkpt>
      <trkpt lat="48.192053" lon="11.887399">
        <ele>500.658396</ele>
        <time>2022-10-18T12:24:26.733Z</time>
      </trkpt>
      <trkpt lat="48.192034" lon="11.887862">
        <ele>500.547237</ele>
        <time>2022-10-18T12:24:57.995Z</time>
      </trkpt>
      <trkpt lat="48.191971" lon="11.887982">
        <ele>500.510634</ele>
        <time>2022-10-18T12:25:08.466Z</time>
      </trkpt>
      <trkpt lat="48.191563" lon="11.888041">
        <ele>500.363293</ele>
        <time>2022-10-18T12:25:50.202Z</time>
      </trkpt>
      <trkpt lat="48.190612" lon="11.888843">
        <ele>499.368749</ele>
        <time>2022-10-18T12:27:41.782Z</time>
      </trkpt>
      <trkpt lat="48.190190" lon="11.888924">
        <ele>498.951976</ele>
        <time>2022-10-18T12:28:25.209Z</time>
      </trkpt>
      <trkpt lat="48.190171" lon="11.888791">
        <ele>498.863145</ele>
        <time>2022-10-18T12:28:34.477Z</time>
      </trkpt>
      <trkpt lat="48.190164" lon="11.888731">
        <ele>498.823365</ele>
        <time>2022-10-18T12:28:38.629Z</time>
      </trkpt>
      <trkpt lat="48.190146" lon="11.888063">
        <ele>498.477827</ele>
        <time>2022-10-18T12:29:24.051Z</time>
      </trkpt>
      <trkpt lat="48.190132" lon="11.887238">
        <ele>498.225033</ele>
        <time>2022-10-18T12:30:20.009Z</time>
      </trkpt>
      <trkpt lat="48.190083" lon="11.884379">
        <ele>497.868929</ele>
        <time>2022-10-18T12:33:31.478Z</time>
      </trkpt>
      <trkpt lat="48.190171" lon="11.881678">
        <ele>498.120565</ele>
        <time>2022-10-18T12:36:34.857Z</time>
      </trkpt>
      <trkpt lat="48.190302" lon="11.879736">
        <ele>498.190752</ele>
        <time>2022-10-18T12:38:45.481Z</time>
      </trkpt>
      <trkpt lat="48.190296" lon="11.879096">
        <ele>498.145149</ele>
        <time>2022-10-18T12:39:28.540Z</time>
      </trkpt>
      <trkpt lat="48.190299" lon="11.879059">
        <ele>498.142494</ele>
        <time>2022-10-18T12:39:31.044Z</time>
      </trkpt>
      <trkpt lat="48.190303" lon="11.879012">
        <ele>498.139118</ele>
        <time>2022-10-18T12:39:34.228Z</time>
      </trkpt>
      <trkpt lat="48.190299" lon="11.878944">
        <ele>498.134254</ele>
        <time>2022-10-18T12:39:38.871Z</time>
      </trkpt>
      <trkpt lat="48.190183" lon="11.878377">
        <ele>498.091998</ele>
        <time>2022-10-18T12:40:18.645Z</time>
      </trkpt>
      <trkpt lat="48.190246" lon="11.877136">
        <ele>498.471307</ele>
        <time>2022-10-18T12:41:41.845Z</time>
      </trkpt>
      <trkpt lat="48.190485" lon="11.874824">
        <ele>500.847163</ele>
        <time>2022-10-18T12:44:27.586Z</time>
      </trkpt>
      <trkpt lat="48.190554" lon="11.874214">
        <ele>501.965877</ele>
        <time>2022-10-18T12:45:13.011Z</time>
      </trkpt>
      <trkpt lat="48.190587" lon="11.873591">
        <ele>503.095881</ele>
        <time>2022-10-18T12:45:59.154Z</time>
      </trkpt>
      <trkpt lat="48.190680" lon="11.871935">
        <ele>505.799584</ele>
        <time>2022-10-18T12:48:01.699Z</time>
      </trkpt>
      <trkpt lat="48.190623" lon="11.871925">
        <ele>505.866419</ele>
        <time>2022-10-18T12:48:07.772Z</time>
      </trkpt>
      <trkpt lat="48.190680" lon="11.871935">
        <ele>505.933254</ele>
        <time>2022-10-18T12:48:14.107Z</time>
      </trkpt>
      <trkpt lat="48.191091" lon="11.871934">
        <ele>506.411906</ele>
        <time>2022-10-18T12:48:57.803Z</time>
      </trkpt>
      <trkpt lat="48.191430" lon="11.871861">
        <ele>506.810754</ele>
        <time>2022-10-18T12:49:33.209Z</time>
      </trkpt>
      <trkpt lat="48.191482" lon="11.871850">
        <ele>506.871913</ele>
        <time>2022-10-18T12:49:38.723Z</time>
      </trkpt>
      <trkpt lat="48.191607" lon="11.871917">
        <ele>507.026503</ele>
        <time>2022-10-18T12:49:52.220Z</time>
      </trkpt>
      <trkpt lat="48.191625" lon="11.871831">
        <ele>507.096484</ele>
        <time>2022-10-18T12:49:58.201Z</time>
      </trkpt>
      <trkpt lat="48.191705" lon="11.871782">
        <ele>507.197120</ele>
        <time>2022-10-18T12:50:07.010Z</time>
      </trkpt>
      <trkpt lat="48.191993" lon="11.871679">
        <ele>507.541926</ele>
        <time>2022-10-18T12:50:36.687Z</time>
      </trkpt>
      <trkpt lat="48.192391" lon="11.871561">
        <ele>507.667682</ele>
        <time>2022-10-18T12:51:17.368Z</time>
      </trkpt>
      <trkpt lat="48.192380" lon="11.871445">
        <ele>507.667682</ele>
        <time>2022-10-18T12:51:25.171Z</time>
      </trkpt>
      <trkpt lat="48.192578" lon="11.871532">
        <ele>507.667682</ele>
        <time>2022-10-18T12:51:46.091Z</time>
      </trkpt>
      <trkpt lat="48.192936" lon="11.871727">
        <ele>507.667682</ele>
        <time>2022-10-18T12:52:24.696Z</time>
      </trkpt>
      <trkpt lat="48.193180" lon="11.872003">
        <ele>507.667682</ele>
        <time>2022-10-18T12:52:55.717Z</time>
      </trkpt>
      <trkpt lat="48.193339" lon="11.872232">
        <ele>507.667682</ele>
        <time>2022-10-18T12:53:18.082Z</time>
      </trkpt>
    </trkseg>
  </trk>
</gpx>